sensor_id;sensor_type;location;lat;lon;timestamp;P1;durP1;ratioP1;P2;durP2;ratioP2
23676;SDS011;31493;49.058;12.190;2024-02-26T00:01:50;23.95;;;13.73;;
23676;SDS011;31493;49.058;12.190;2024-02-26T00:04:18;24.25;;;13.70;;
23676;SDS011;31493;49.058;12.190;2024-02-26T00:06:45;25.48;;;12.95;;
23676;SDS011;31493;49.058;12.190;2024-02-26T00:09:12;20.50;;;12.35;;
23676;SDS011;31493;49.058;12.190;2024-02-26T00:11:41;19.65;;;11.48;;
23676;SDS011;31493;49.058;12.190;2024-02-26T00:14:08;21.50;;;11.25;;
23676;SDS011;31493;49.058;12.190;2024-02-26T00:16:35;19.73;;;11.52;;
23676;SDS011;31493;49.058;12.190;2024-02-26T00:19:02;17.63;;;10.60;;
23676;SDS011;31493;49.058;12.190;2024-02-26T00:21:29;18.75;;;10.43;;
23676;SDS011;31493;49.058;12.190;2024-02-26T00:23:56;14.98;;;9.10;;
23676;SDS011;31493;49.058;12.190;2024-02-26T00:26:23;15.73;;;9.20;;
23676;SDS011;31493;49.058;12.190;2024-02-26T00:28:52;14.98;;;8.25;;
23676;SDS011;31493;49.058;12.190;2024-02-26T00:31:19;15.63;;;8.48;;
23676;SDS011;31493;49.058;12.190;2024-02-26T00:33:46;14.63;;;8.43;;
23676;SDS011;31493;49.058;12.190;2024-02-26T00:36:14;14.45;;;8.02;;
23676;SDS011;31493;49.058;12.190;2024-02-26T00:38:41;15.35;;;8.30;;
23676;SDS011;31493;49.058;12.190;2024-02-26T00:41:10;11.98;;;7.32;;
23676;SDS011;31493;49.058;12.190;2024-02-26T00:43:37;12.38;;;6.80;;
23676;SDS011;31493;49.058;12.190;2024-02-26T00:46:07;13.07;;;7.35;;
23676;SDS011;31493;49.058;12.190;2024-02-26T00:48:34;10.70;;;6.65;;
23676;SDS011;31493;49.058;12.190;2024-02-26T00:51:02;11.00;;;6.33;;
23676;SDS011;31493;49.058;12.190;2024-02-26T00:53:30;11.05;;;6.47;;
23676;SDS011;31493;49.058;12.190;2024-02-26T00:55:58;12.02;;;6.78;;
23676;SDS011;31493;49.058;12.190;2024-02-26T00:58:25;10.93;;;6.30;;
23676;SDS011;31493;49.058;12.190;2024-02-26T01:00:52;10.20;;;6.28;;
23676;SDS011;31493;49.058;12.190;2024-02-26T01:03:21;10.02;;;6.10;;
23676;SDS011;31493;49.058;12.190;2024-02-26T01:05:48;10.43;;;6.38;;
23676;SDS011;31493;49.058;12.190;2024-02-26T01:08:15;10.35;;;6.55;;
23676;SDS011;31493;49.058;12.190;2024-02-26T01:10:42;11.43;;;5.70;;
23676;SDS011;31493;49.058;12.190;2024-02-26T01:13:09;11.18;;;5.60;;
23676;SDS011;31493;49.058;12.190;2024-02-26T01:15:36;8.20;;;5.20;;
23676;SDS011;31493;49.058;12.190;2024-02-26T01:18:04;11.40;;;5.50;;
23676;SDS011;31493;49.058;12.190;2024-02-26T01:20:32;8.73;;;5.22;;
23676;SDS011;31493;49.058;12.190;2024-02-26T01:22:59;9.18;;;5.22;;
23676;SDS011;31493;49.058;12.190;2024-02-26T01:25:26;9.32;;;4.88;;
23676;SDS011;31493;49.058;12.190;2024-02-26T01:27:54;7.00;;;4.35;;
23676;SDS011;31493;49.058;12.190;2024-02-26T01:30:21;8.02;;;4.95;;
23676;SDS011;31493;49.058;12.190;2024-02-26T01:32:48;6.45;;;4.28;;
23676;SDS011;31493;49.058;12.190;2024-02-26T01:35:15;8.82;;;4.40;;
23676;SDS011;31493;49.058;12.190;2024-02-26T01:37:44;9.23;;;4.55;;
23676;SDS011;31493;49.058;12.190;2024-02-26T01:40:11;6.93;;;4.15;;
23676;SDS011;31493;49.058;12.190;2024-02-26T01:42:43;6.93;;;4.13;;
23676;SDS011;31493;49.058;12.190;2024-02-26T01:45:12;6.13;;;3.83;;
23676;SDS011;31493;49.058;12.190;2024-02-26T01:47:48;5.65;;;3.65;;
23676;SDS011;31493;49.058;12.190;2024-02-26T01:50:17;7.72;;;3.90;;
23676;SDS011;31493;49.058;12.190;2024-02-26T01:52:46;5.72;;;3.60;;
23676;SDS011;31493;49.058;12.190;2024-02-26T01:55:14;8.20;;;3.90;;
23676;SDS011;31493;49.058;12.190;2024-02-26T01:57:42;6.18;;;4.05;;
23676;SDS011;31493;49.058;12.190;2024-02-26T02:00:10;4.70;;;3.30;;
23676;SDS011;31493;49.058;12.190;2024-02-26T02:02:39;6.43;;;3.97;;
23676;SDS011;31493;49.058;12.190;2024-02-26T02:05:07;6.15;;;3.85;;
23676;SDS011;31493;49.058;12.190;2024-02-26T02:07:36;7.03;;;4.18;;
23676;SDS011;31493;49.058;12.190;2024-02-26T02:10:05;6.97;;;3.75;;
23676;SDS011;31493;49.058;12.190;2024-02-26T02:12:32;6.85;;;4.30;;
23676;SDS011;31493;49.058;12.190;2024-02-26T02:15:01;5.53;;;4.03;;
23676;SDS011;31493;49.058;12.190;2024-02-26T02:17:30;6.75;;;4.20;;
23676;SDS011;31493;49.058;12.190;2024-02-26T02:19:57;7.07;;;3.97;;
23676;SDS011;31493;49.058;12.190;2024-02-26T02:22:26;6.57;;;3.90;;
23676;SDS011;31493;49.058;12.190;2024-02-26T02:24:54;7.15;;;4.35;;
23676;SDS011;31493;49.058;12.190;2024-02-26T02:27:21;9.15;;;4.45;;
23676;SDS011;31493;49.058;12.190;2024-02-26T02:29:48;8.35;;;5.00;;
23676;SDS011;31493;49.058;12.190;2024-02-26T02:32:15;7.78;;;4.97;;
23676;SDS011;31493;49.058;12.190;2024-02-26T02:34:44;8.50;;;5.25;;
23676;SDS011;31493;49.058;12.190;2024-02-26T02:37:11;7.53;;;5.13;;
23676;SDS011;31493;49.058;12.190;2024-02-26T02:39:40;9.30;;;5.72;;
23676;SDS011;31493;49.058;12.190;2024-02-26T02:42:08;9.35;;;5.90;;
23676;SDS011;31493;49.058;12.190;2024-02-26T02:44:36;9.43;;;5.97;;
23676;SDS011;31493;49.058;12.190;2024-02-26T02:47:03;10.13;;;5.53;;
23676;SDS011;31493;49.058;12.190;2024-02-26T02:49:30;7.22;;;5.00;;
23676;SDS011;31493;49.058;12.190;2024-02-26T02:51:57;9.55;;;5.32;;
23676;SDS011;31493;49.058;12.190;2024-02-26T02:54:24;7.78;;;5.40;;
23676;SDS011;31493;49.058;12.190;2024-02-26T02:56:53;7.32;;;5.15;;
23676;SDS011;31493;49.058;12.190;2024-02-26T02:59:20;8.18;;;5.22;;
23676;SDS011;31493;49.058;12.190;2024-02-26T03:01:47;7.57;;;4.88;;
23676;SDS011;31493;49.058;12.190;2024-02-26T03:04:14;6.85;;;5.13;;
23676;SDS011;31493;49.058;12.190;2024-02-26T03:06:42;7.03;;;4.82;;
23676;SDS011;31493;49.058;12.190;2024-02-26T03:09:09;7.53;;;4.80;;
23676;SDS011;31493;49.058;12.190;2024-02-26T03:11:36;7.95;;;4.72;;
23676;SDS011;31493;49.058;12.190;2024-02-26T03:14:05;7.90;;;5.10;;
23676;SDS011;31493;49.058;12.190;2024-02-26T03:16:33;7.30;;;4.65;;
23676;SDS011;31493;49.058;12.190;2024-02-26T03:19:00;7.32;;;4.55;;
23676;SDS011;31493;49.058;12.190;2024-02-26T03:21:28;8.00;;;4.78;;
23676;SDS011;31493;49.058;12.190;2024-02-26T03:23:55;6.70;;;4.45;;
23676;SDS011;31493;49.058;12.190;2024-02-26T03:26:23;10.25;;;4.68;;
23676;SDS011;31493;49.058;12.190;2024-02-26T03:28:50;6.82;;;4.70;;
23676;SDS011;31493;49.058;12.190;2024-02-26T03:31:18;7.80;;;4.82;;
23676;SDS011;31493;49.058;12.190;2024-02-26T03:33:47;7.32;;;4.22;;
23676;SDS011;31493;49.058;12.190;2024-02-26T03:36:14;7.03;;;4.80;;
23676;SDS011;31493;49.058;12.190;2024-02-26T03:38:42;6.72;;;4.45;;
23676;SDS011;31493;49.058;12.190;2024-02-26T03:41:09;9.93;;;4.20;;
23676;SDS011;31493;49.058;12.190;2024-02-26T03:43:36;6.97;;;4.38;;
23676;SDS011;31493;49.058;12.190;2024-02-26T03:46:03;6.63;;;4.25;;
23676;SDS011;31493;49.058;12.190;2024-02-26T03:48:35;6.68;;;4.22;;
23676;SDS011;31493;49.058;12.190;2024-02-26T03:51:02;6.85;;;4.20;;
23676;SDS011;31493;49.058;12.190;2024-02-26T03:53:29;6.10;;;4.05;;
23676;SDS011;31493;49.058;12.190;2024-02-26T03:55:57;8.52;;;4.43;;
23676;SDS011;31493;49.058;12.190;2024-02-26T03:58:24;6.40;;;4.20;;
23676;SDS011;31493;49.058;12.190;2024-02-26T04:00:51;6.32;;;4.10;;
23676;SDS011;31493;49.058;12.190;2024-02-26T04:03:18;6.97;;;4.43;;
23676;SDS011;31493;49.058;12.190;2024-02-26T04:05:47;7.18;;;4.30;;
23676;SDS011;31493;49.058;12.190;2024-02-26T04:08:14;7.20;;;3.90;;
23676;SDS011;31493;49.058;12.190;2024-02-26T04:10:41;5.95;;;4.00;;
23676;SDS011;31493;49.058;12.190;2024-02-26T04:13:08;4.82;;;3.35;;
23676;SDS011;31493;49.058;12.190;2024-02-26T04:15:35;7.32;;;4.03;;
23676;SDS011;31493;49.058;12.190;2024-02-26T04:18:03;6.40;;;3.67;;
23676;SDS011;31493;49.058;12.190;2024-02-26T04:20:30;6.57;;;3.83;;
23676;SDS011;31493;49.058;12.190;2024-02-26T04:22:58;6.22;;;3.92;;
23676;SDS011;31493;49.058;12.190;2024-02-26T04:25:26;6.20;;;3.70;;
23676;SDS011;31493;49.058;12.190;2024-02-26T04:27:54;7.55;;;4.53;;
23676;SDS011;31493;49.058;12.190;2024-02-26T04:30:21;13.45;;;6.65;;
23676;SDS011;31493;49.058;12.190;2024-02-26T04:32:48;12.63;;;6.97;;
23676;SDS011;31493;49.058;12.190;2024-02-26T04:35:16;9.05;;;5.95;;
23676;SDS011;31493;49.058;12.190;2024-02-26T04:37:43;9.45;;;4.85;;
23676;SDS011;31493;49.058;12.190;2024-02-26T04:40:12;6.38;;;4.35;;
23676;SDS011;31493;49.058;12.190;2024-02-26T04:45:07;6.20;;;4.05;;
23676;SDS011;31493;49.058;12.190;2024-02-26T04:47:34;5.85;;;3.80;;
23676;SDS011;31493;49.058;12.190;2024-02-26T04:50:02;4.97;;;3.78;;
23676;SDS011;31493;49.058;12.190;2024-02-26T04:52:29;8.43;;;3.97;;
23676;SDS011;31493;49.058;12.190;2024-02-26T04:54:56;7.82;;;3.70;;
23676;SDS011;31493;49.058;12.190;2024-02-26T04:57:26;5.38;;;3.20;;
23676;SDS011;31493;49.058;12.190;2024-02-26T04:59:54;6.15;;;3.60;;
23676;SDS011;31493;49.058;12.190;2024-02-26T05:02:21;6.20;;;3.60;;
23676;SDS011;31493;49.058;12.190;2024-02-26T05:04:48;5.32;;;3.53;;
23676;SDS011;31493;49.058;12.190;2024-02-26T05:07:15;4.95;;;3.35;;
23676;SDS011;31493;49.058;12.190;2024-02-26T05:09:43;5.38;;;3.70;;
23676;SDS011;31493;49.058;12.190;2024-02-26T05:12:10;5.18;;;3.38;;
23676;SDS011;31493;49.058;12.190;2024-02-26T05:14:38;6.75;;;3.80;;
23676;SDS011;31493;49.058;12.190;2024-02-26T05:17:06;5.32;;;3.45;;
23676;SDS011;31493;49.058;12.190;2024-02-26T05:19:33;4.80;;;3.10;;
23676;SDS011;31493;49.058;12.190;2024-02-26T05:22:00;5.57;;;3.50;;
23676;SDS011;31493;49.058;12.190;2024-02-26T05:24:27;5.85;;;3.38;;
23676;SDS011;31493;49.058;12.190;2024-02-26T05:26:54;6.45;;;3.05;;
23676;SDS011;31493;49.058;12.190;2024-02-26T05:29:22;6.95;;;3.70;;
23676;SDS011;31493;49.058;12.190;2024-02-26T05:31:50;6.15;;;4.15;;
23676;SDS011;31493;49.058;12.190;2024-02-26T05:34:20;8.43;;;4.30;;
23676;SDS011;31493;49.058;12.190;2024-02-26T05:36:47;5.35;;;3.40;;
23676;SDS011;31493;49.058;12.190;2024-02-26T05:39:14;6.88;;;3.70;;
23676;SDS011;31493;49.058;12.190;2024-02-26T05:41:42;8.98;;;4.22;;
23676;SDS011;31493;49.058;12.190;2024-02-26T05:44:10;5.25;;;3.42;;
23676;SDS011;31493;49.058;12.190;2024-02-26T05:46:38;6.40;;;3.80;;
23676;SDS011;31493;49.058;12.190;2024-02-26T05:49:06;7.07;;;4.18;;
23676;SDS011;31493;49.058;12.190;2024-02-26T05:51:34;6.97;;;4.30;;
23676;SDS011;31493;49.058;12.190;2024-02-26T05:54:01;6.78;;;3.90;;
23676;SDS011;31493;49.058;12.190;2024-02-26T05:56:28;6.95;;;3.60;;
23676;SDS011;31493;49.058;12.190;2024-02-26T05:58:55;7.35;;;4.07;;
23676;SDS011;31493;49.058;12.190;2024-02-26T06:01:22;6.57;;;4.57;;
23676;SDS011;31493;49.058;12.190;2024-02-26T06:03:50;5.65;;;3.90;;
23676;SDS011;31493;49.058;12.190;2024-02-26T06:06:19;7.97;;;4.30;;
23676;SDS011;31493;49.058;12.190;2024-02-26T06:08:48;5.93;;;3.78;;
23676;SDS011;31493;49.058;12.190;2024-02-26T06:11:15;6.43;;;4.22;;
23676;SDS011;31493;49.058;12.190;2024-02-26T06:13:42;6.70;;;3.92;;
23676;SDS011;31493;49.058;12.190;2024-02-26T06:16:10;5.90;;;3.70;;
23676;SDS011;31493;49.058;12.190;2024-02-26T06:18:37;6.85;;;4.38;;
23676;SDS011;31493;49.058;12.190;2024-02-26T06:21:04;7.18;;;4.47;;
23676;SDS011;31493;49.058;12.190;2024-02-26T06:23:37;8.32;;;4.30;;
23676;SDS011;31493;49.058;12.190;2024-02-26T06:26:04;7.65;;;4.40;;
23676;SDS011;31493;49.058;12.190;2024-02-26T06:28:31;7.43;;;4.63;;
23676;SDS011;31493;49.058;12.190;2024-02-26T06:31:01;5.82;;;4.28;;
23676;SDS011;31493;49.058;12.190;2024-02-26T06:33:28;8.05;;;4.38;;
23676;SDS011;31493;49.058;12.190;2024-02-26T06:35:55;8.13;;;5.38;;
23676;SDS011;31493;49.058;12.190;2024-02-26T06:38:22;8.80;;;5.70;;
23676;SDS011;31493;49.058;12.190;2024-02-26T06:40:51;13.38;;;5.70;;
23676;SDS011;31493;49.058;12.190;2024-02-26T06:43:18;9.00;;;5.22;;
23676;SDS011;31493;49.058;12.190;2024-02-26T06:45:45;7.70;;;5.00;;
23676;SDS011;31493;49.058;12.190;2024-02-26T06:48:12;7.88;;;4.65;;
23676;SDS011;31493;49.058;12.190;2024-02-26T06:50:40;8.38;;;4.53;;
23676;SDS011;31493;49.058;12.190;2024-02-26T06:53:07;7.75;;;4.82;;
23676;SDS011;31493;49.058;12.190;2024-02-26T06:55:34;9.60;;;5.38;;
23676;SDS011;31493;49.058;12.190;2024-02-26T06:58:04;8.80;;;5.75;;
23676;SDS011;31493;49.058;12.190;2024-02-26T07:00:31;8.80;;;6.10;;
23676;SDS011;31493;49.058;12.190;2024-02-26T07:02:58;9.07;;;5.60;;
23676;SDS011;31493;49.058;12.190;2024-02-26T07:05:26;11.48;;;6.00;;
23676;SDS011;31493;49.058;12.190;2024-02-26T07:07:53;9.63;;;5.60;;
23676;SDS011;31493;49.058;12.190;2024-02-26T07:10:20;9.75;;;5.38;;
23676;SDS011;31493;49.058;12.190;2024-02-26T07:12:48;10.02;;;4.97;;
23676;SDS011;31493;49.058;12.190;2024-02-26T07:15:16;8.10;;;4.95;;
23676;SDS011;31493;49.058;12.190;2024-02-26T07:17:44;5.95;;;4.20;;
23676;SDS011;31493;49.058;12.190;2024-02-26T07:20:13;9.57;;;5.15;;
23676;SDS011;31493;49.058;12.190;2024-02-26T07:22:40;8.80;;;5.30;;
23676;SDS011;31493;49.058;12.190;2024-02-26T07:25:08;8.13;;;5.25;;
23676;SDS011;31493;49.058;12.190;2024-02-26T07:27:38;11.27;;;6.10;;
23676;SDS011;31493;49.058;12.190;2024-02-26T07:30:07;9.70;;;6.23;;
23676;SDS011;31493;49.058;12.190;2024-02-26T07:32:36;10.27;;;6.15;;
23676;SDS011;31493;49.058;12.190;2024-02-26T07:35:03;12.23;;;6.72;;
23676;SDS011;31493;49.058;12.190;2024-02-26T07:37:31;11.43;;;7.72;;
23676;SDS011;31493;49.058;12.190;2024-02-26T07:39:58;13.80;;;7.70;;
23676;SDS011;31493;49.058;12.190;2024-02-26T07:42:26;10.77;;;6.72;;
23676;SDS011;31493;49.058;12.190;2024-02-26T07:44:53;12.60;;;7.15;;
23676;SDS011;31493;49.058;12.190;2024-02-26T07:47:20;12.05;;;6.50;;
23676;SDS011;31493;49.058;12.190;2024-02-26T07:49:49;11.25;;;6.35;;
23676;SDS011;31493;49.058;12.190;2024-02-26T07:52:16;10.02;;;6.47;;
23676;SDS011;31493;49.058;12.190;2024-02-26T07:54:43;10.70;;;6.60;;
23676;SDS011;31493;49.058;12.190;2024-02-26T07:57:10;11.32;;;6.53;;
23676;SDS011;31493;49.058;12.190;2024-02-26T07:59:41;10.10;;;7.03;;
23676;SDS011;31493;49.058;12.190;2024-02-26T08:02:08;10.50;;;6.93;;
23676;SDS011;31493;49.058;12.190;2024-02-26T08:04:35;12.82;;;7.43;;
23676;SDS011;31493;49.058;12.190;2024-02-26T08:07:03;11.63;;;7.22;;
23676;SDS011;31493;49.058;12.190;2024-02-26T08:09:31;12.93;;;7.55;;
23676;SDS011;31493;49.058;12.190;2024-02-26T08:11:59;12.90;;;7.32;;
23676;SDS011;31493;49.058;12.190;2024-02-26T08:14:26;13.52;;;7.22;;
23676;SDS011;31493;49.058;12.190;2024-02-26T08:16:53;12.30;;;8.18;;
23676;SDS011;31493;49.058;12.190;2024-02-26T08:19:20;13.15;;;7.28;;
23676;SDS011;31493;49.058;12.190;2024-02-26T08:21:47;13.73;;;8.43;;
23676;SDS011;31493;49.058;12.190;2024-02-26T08:24:16;16.88;;;7.82;;
23676;SDS011;31493;49.058;12.190;2024-02-26T08:26:43;15.48;;;7.97;;
23676;SDS011;31493;49.058;12.190;2024-02-26T08:29:11;13.95;;;8.18;;
23676;SDS011;31493;49.058;12.190;2024-02-26T08:31:38;11.15;;;7.43;;
23676;SDS011;31493;49.058;12.190;2024-02-26T08:34:05;14.40;;;7.78;;
23676;SDS011;31493;49.058;12.190;2024-02-26T08:36:33;12.40;;;8.30;;
23676;SDS011;31493;49.058;12.190;2024-02-26T08:39:01;14.10;;;7.28;;
23676;SDS011;31493;49.058;12.190;2024-02-26T08:41:30;11.43;;;7.60;;
23676;SDS011;31493;49.058;12.190;2024-02-26T08:43:57;15.23;;;7.95;;
23676;SDS011;31493;49.058;12.190;2024-02-26T08:46:24;13.10;;;8.48;;
23676;SDS011;31493;49.058;12.190;2024-02-26T08:48:52;14.27;;;8.00;;
23676;SDS011;31493;49.058;12.190;2024-02-26T08:51:19;15.55;;;8.10;;
23676;SDS011;31493;49.058;12.190;2024-02-26T08:53:46;11.93;;;8.20;;
23676;SDS011;31493;49.058;12.190;2024-02-26T08:56:14;12.43;;;7.75;;
23676;SDS011;31493;49.058;12.190;2024-02-26T08:58:44;13.18;;;7.60;;
23676;SDS011;31493;49.058;12.190;2024-02-26T09:01:14;9.68;;;6.70;;
23676;SDS011;31493;49.058;12.190;2024-02-26T09:03:41;10.63;;;6.97;;
23676;SDS011;31493;49.058;12.190;2024-02-26T09:06:08;11.48;;;6.78;;
23676;SDS011;31493;49.058;12.190;2024-02-26T09:08:37;10.50;;;6.63;;
23676;SDS011;31493;49.058;12.190;2024-02-26T09:11:04;12.63;;;7.70;;
23676;SDS011;31493;49.058;12.190;2024-02-26T09:13:32;11.65;;;6.95;;
23676;SDS011;31493;49.058;12.190;2024-02-26T09:16:00;11.90;;;6.60;;
23676;SDS011;31493;49.058;12.190;2024-02-26T09:18:28;9.10;;;5.88;;
23676;SDS011;31493;49.058;12.190;2024-02-26T09:20:55;9.90;;;6.28;;
23676;SDS011;31493;49.058;12.190;2024-02-26T09:23:22;7.53;;;5.00;;
23676;SDS011;31493;49.058;12.190;2024-02-26T09:25:49;4.80;;;2.92;;
23676;SDS011;31493;49.058;12.190;2024-02-26T09:28:17;5.72;;;1.88;;
23676;SDS011;31493;49.058;12.190;2024-02-26T09:30:44;3.95;;;1.30;;
23676;SDS011;31493;49.058;12.190;2024-02-26T09:33:13;1.60;;;0.95;;
23676;SDS011;31493;49.058;12.190;2024-02-26T09:38:07;1.98;;;1.70;;
23676;SDS011;31493;49.058;12.190;2024-02-26T09:40:35;2.35;;;1.30;;
23676;SDS011;31493;49.058;12.190;2024-02-26T09:43:03;1.50;;;0.90;;
23676;SDS011;31493;49.058;12.190;2024-02-26T09:45:32;1.70;;;1.10;;
23676;SDS011;31493;49.058;12.190;2024-02-26T09:47:59;2.45;;;1.02;;
23676;SDS011;31493;49.058;12.190;2024-02-26T09:50:30;1.45;;;0.90;;
23676;SDS011;31493;49.058;12.190;2024-02-26T09:52:57;1.45;;;0.98;;
23676;SDS011;31493;49.058;12.190;2024-02-26T09:55:28;1.33;;;0.80;;
23676;SDS011;31493;49.058;12.190;2024-02-26T09:57:55;2.38;;;1.40;;
23676;SDS011;31493;49.058;12.190;2024-02-26T10:00:24;1.08;;;0.90;;
23676;SDS011;31493;49.058;12.190;2024-02-26T10:02:55;1.77;;;1.00;;
23676;SDS011;31493;49.058;12.190;2024-02-26T10:05:25;1.85;;;1.05;;
23676;SDS011;31493;49.058;12.190;2024-02-26T10:07:54;2.08;;;0.90;;
23676;SDS011;31493;49.058;12.190;2024-02-26T10:10:23;2.28;;;1.20;;
23676;SDS011;31493;49.058;12.190;2024-02-26T10:12:51;1.60;;;1.00;;
23676;SDS011;31493;49.058;12.190;2024-02-26T10:15:18;1.67;;;1.00;;
23676;SDS011;31493;49.058;12.190;2024-02-26T10:17:45;1.50;;;1.10;;
23676;SDS011;31493;49.058;12.190;2024-02-26T10:20:13;1.58;;;1.10;;
23676;SDS011;31493;49.058;12.190;2024-02-26T10:22:43;2.00;;;1.15;;
23676;SDS011;31493;49.058;12.190;2024-02-26T10:25:11;1.67;;;1.00;;
23676;SDS011;31493;49.058;12.190;2024-02-26T10:27:40;4.00;;;1.85;;
23676;SDS011;31493;49.058;12.190;2024-02-26T10:30:15;2.35;;;1.10;;
23676;SDS011;31493;49.058;12.190;2024-02-26T10:32:44;2.05;;;1.15;;
23676;SDS011;31493;49.058;12.190;2024-02-26T10:35:11;2.13;;;1.10;;
23676;SDS011;31493;49.058;12.190;2024-02-26T10:37:39;1.65;;;1.00;;
23676;SDS011;31493;49.058;12.190;2024-02-26T10:40:08;3.17;;;1.17;;
23676;SDS011;31493;49.058;12.190;2024-02-26T10:42:38;1.88;;;1.10;;
23676;SDS011;31493;49.058;12.190;2024-02-26T10:45:06;1.67;;;0.90;;
23676;SDS011;31493;49.058;12.190;2024-02-26T10:47:34;1.60;;;1.08;;
23676;SDS011;31493;49.058;12.190;2024-02-26T10:50:02;1.38;;;1.00;;
23676;SDS011;31493;49.058;12.190;2024-02-26T10:52:31;2.03;;;1.00;;
23676;SDS011;31493;49.058;12.190;2024-02-26T10:55:00;2.75;;;1.20;;
23676;SDS011;31493;49.058;12.190;2024-02-26T10:57:29;1.45;;;0.90;;
23676;SDS011;31493;49.058;12.190;2024-02-26T11:02:37;2.00;;;1.05;;
23676;SDS011;31493;49.058;12.190;2024-02-26T11:05:07;1.98;;;1.00;;
23676;SDS011;31493;49.058;12.190;2024-02-26T11:07:35;4.32;;;1.00;;
23676;SDS011;31493;49.058;12.190;2024-02-26T11:10:03;1.30;;;1.10;;
23676;SDS011;31493;49.058;12.190;2024-02-26T11:12:31;2.05;;;1.10;;
23676;SDS011;31493;49.058;12.190;2024-02-26T11:15:01;3.08;;;1.20;;
23676;SDS011;31493;49.058;12.190;2024-02-26T11:17:29;2.30;;;1.02;;
23676;SDS011;31493;49.058;12.190;2024-02-26T11:19:59;3.08;;;1.23;;
23676;SDS011;31493;49.058;12.190;2024-02-26T11:22:28;1.92;;;0.90;;
23676;SDS011;31493;49.058;12.190;2024-02-26T11:24:56;1.15;;;0.90;;
23676;SDS011;31493;49.058;12.190;2024-02-26T11:27:27;1.05;;;0.65;;
23676;SDS011;31493;49.058;12.190;2024-02-26T11:29:58;3.70;;;1.00;;
23676;SDS011;31493;49.058;12.190;2024-02-26T11:32:28;1.20;;;0.80;;
23676;SDS011;31493;49.058;12.190;2024-02-26T11:34:58;1.88;;;0.63;;
23676;SDS011;31493;49.058;12.190;2024-02-26T11:37:25;1.52;;;0.80;;
23676;SDS011;31493;49.058;12.190;2024-02-26T11:39:53;1.27;;;0.70;;
23676;SDS011;31493;49.058;12.190;2024-02-26T11:42:22;2.88;;;0.90;;
23676;SDS011;31493;49.058;12.190;2024-02-26T11:44:50;1.92;;;0.73;;
23676;SDS011;31493;49.058;12.190;2024-02-26T11:47:18;1.42;;;0.80;;
23676;SDS011;31493;49.058;12.190;2024-02-26T11:49:45;1.85;;;0.70;;
23676;SDS011;31493;49.058;12.190;2024-02-26T11:52:14;1.10;;;0.80;;
23676;SDS011;31493;49.058;12.190;2024-02-26T11:54:45;0.82;;;0.68;;
23676;SDS011;31493;49.058;12.190;2024-02-26T11:57:20;1.75;;;0.80;;
23676;SDS011;31493;49.058;12.190;2024-02-26T11:59:51;1.45;;;0.80;;
23676;SDS011;31493;49.058;12.190;2024-02-26T12:02:37;1.33;;;0.95;;
23676;SDS011;31493;49.058;12.190;2024-02-26T12:05:06;0.77;;;0.57;;
23676;SDS011;31493;49.058;12.190;2024-02-26T12:07:40;2.22;;;1.00;;
23676;SDS011;31493;49.058;12.190;2024-02-26T12:10:15;1.27;;;0.90;;
23676;SDS011;31493;49.058;12.190;2024-02-26T12:12:47;1.25;;;0.90;;
23676;SDS011;31493;49.058;12.190;2024-02-26T12:15:15;1.35;;;0.80;;
23676;SDS011;31493;49.058;12.190;2024-02-26T12:17:48;1.50;;;1.00;;
23676;SDS011;31493;49.058;12.190;2024-02-26T12:20:16;3.10;;;1.05;;
23676;SDS011;31493;49.058;12.190;2024-02-26T12:22:46;2.28;;;0.82;;
23676;SDS011;31493;49.058;12.190;2024-02-26T12:25:14;1.95;;;0.95;;
23676;SDS011;31493;49.058;12.190;2024-02-26T12:27:41;2.70;;;1.20;;
23676;SDS011;31493;49.058;12.190;2024-02-26T12:30:09;1.60;;;0.93;;
23676;SDS011;31493;49.058;12.190;2024-02-26T12:32:37;1.30;;;0.93;;
23676;SDS011;31493;49.058;12.190;2024-02-26T12:35:05;5.93;;;4.18;;
23676;SDS011;31493;49.058;12.190;2024-02-26T12:37:33;7.53;;;5.07;;
23676;SDS011;31493;49.058;12.190;2024-02-26T12:40:05;8.05;;;5.40;;
23676;SDS011;31493;49.058;12.190;2024-02-26T12:42:34;9.48;;;5.40;;
23676;SDS011;31493;49.058;12.190;2024-02-26T12:45:05;9.32;;;6.22;;
23676;SDS011;31493;49.058;12.190;2024-02-26T12:47:35;9.82;;;6.53;;
23676;SDS011;31493;49.058;12.190;2024-02-26T12:50:03;9.43;;;6.65;;
23676;SDS011;31493;49.058;12.190;2024-02-26T12:52:31;11.32;;;6.13;;
23676;SDS011;31493;49.058;12.190;2024-02-26T12:54:59;8.93;;;6.28;;
23676;SDS011;31493;49.058;12.190;2024-02-26T12:57:29;11.02;;;6.40;;
23676;SDS011;31493;49.058;12.190;2024-02-26T12:59:58;10.13;;;6.97;;
23676;SDS011;31493;49.058;12.190;2024-02-26T13:02:26;12.35;;;7.70;;
23676;SDS011;31493;49.058;12.190;2024-02-26T13:04:54;11.57;;;7.43;;
23676;SDS011;31493;49.058;12.190;2024-02-26T13:07:22;9.52;;;6.95;;
23676;SDS011;31493;49.058;12.190;2024-02-26T13:09:49;9.55;;;7.20;;
23676;SDS011;31493;49.058;12.190;2024-02-26T13:12:18;10.18;;;7.40;;
23676;SDS011;31493;49.058;12.190;2024-02-26T13:14:46;11.18;;;8.20;;
23676;SDS011;31493;49.058;12.190;2024-02-26T13:17:14;12.80;;;7.53;;
23676;SDS011;31493;49.058;12.190;2024-02-26T13:19:48;11.18;;;7.10;;
23676;SDS011;31493;49.058;12.190;2024-02-26T13:22:16;10.87;;;7.30;;
23676;SDS011;31493;49.058;12.190;2024-02-26T13:24:53;9.75;;;7.00;;
23676;SDS011;31493;49.058;12.190;2024-02-26T13:27:21;9.20;;;6.75;;
23676;SDS011;31493;49.058;12.190;2024-02-26T13:29:50;9.98;;;6.97;;
23676;SDS011;31493;49.058;12.190;2024-02-26T13:32:31;9.15;;;6.47;;
23676;SDS011;31493;49.058;12.190;2024-02-26T13:37:33;9.02;;;6.28;;
23676;SDS011;31493;49.058;12.190;2024-02-26T13:40:00;10.50;;;7.20;;
23676;SDS011;31493;49.058;12.190;2024-02-26T13:42:32;9.60;;;6.82;;
23676;SDS011;31493;49.058;12.190;2024-02-26T13:45:00;9.85;;;6.45;;
23676;SDS011;31493;49.058;12.190;2024-02-26T13:47:28;7.85;;;5.95;;
23676;SDS011;31493;49.058;12.190;2024-02-26T13:49:55;8.98;;;5.78;;
23676;SDS011;31493;49.058;12.190;2024-02-26T13:52:22;8.68;;;5.35;;
23676;SDS011;31493;49.058;12.190;2024-02-26T13:54:49;8.93;;;4.88;;
23676;SDS011;31493;49.058;12.190;2024-02-26T13:57:16;7.82;;;4.50;;
23676;SDS011;31493;49.058;12.190;2024-02-26T13:59:44;7.10;;;4.57;;
23676;SDS011;31493;49.058;12.190;2024-02-26T14:02:13;6.35;;;4.60;;
23676;SDS011;31493;49.058;12.190;2024-02-26T14:04:40;6.10;;;4.22;;
23676;SDS011;31493;49.058;12.190;2024-02-26T14:07:07;6.10;;;4.43;;
23676;SDS011;31493;49.058;12.190;2024-02-26T14:09:35;6.57;;;4.93;;
23676;SDS011;31493;49.058;12.190;2024-02-26T14:12:02;6.40;;;4.90;;
23676;SDS011;31493;49.058;12.190;2024-02-26T14:14:29;8.35;;;5.25;;
23676;SDS011;31493;49.058;12.190;2024-02-26T14:17:01;7.25;;;5.20;;
23676;SDS011;31493;49.058;12.190;2024-02-26T14:19:30;10.15;;;5.88;;
23676;SDS011;31493;49.058;12.190;2024-02-26T14:21:57;8.73;;;6.13;;
23676;SDS011;31493;49.058;12.190;2024-02-26T14:24:24;8.73;;;6.25;;
23676;SDS011;31493;49.058;12.190;2024-02-26T14:26:51;9.95;;;6.40;;
23676;SDS011;31493;49.058;12.190;2024-02-26T14:29:19;10.00;;;6.80;;
23676;SDS011;31493;49.058;12.190;2024-02-26T14:31:46;9.38;;;6.50;;
23676;SDS011;31493;49.058;12.190;2024-02-26T14:34:13;11.50;;;6.20;;
23676;SDS011;31493;49.058;12.190;2024-02-26T14:36:42;9.40;;;6.50;;
23676;SDS011;31493;49.058;12.190;2024-02-26T14:39:09;10.15;;;6.53;;
23676;SDS011;31493;49.058;12.190;2024-02-26T14:41:38;9.27;;;6.65;;
23676;SDS011;31493;49.058;12.190;2024-02-26T14:44:05;11.32;;;6.70;;
23676;SDS011;31493;49.058;12.190;2024-02-26T14:46:32;11.27;;;6.90;;